sensor_id;sensor_type;location;lat;lon;timestamp;pressure;altitude;pressure_sealevel;temperature;humidity
21401;BME280;18038;50.166;18.908;2023-07-08T00:01:11;98604.19;;;14.47;61.23
21401;BME280;18038;50.166;18.908;2023-07-08T00:04:19;98613.91;;;14.55;61.68
21401;BME280;18038;50.166;18.908;2023-07-08T00:07:26;98606.88;;;14.47;59.90
21401;BME280;18038;50.166;18.908;2023-07-08T00:10:37;98602.75;;;14.44;59.32
21401;BME280;18038;50.166;18.908;2023-07-08T00:13:43;98612.06;;;14.49;57.98
21401;BME280;18038;50.166;18.908;2023-07-08T00:16:51;98614.53;;;14.50;56.26
21401;BME280;18038;50.166;18.908;2023-07-08T00:19:57;98611.00;;;14.56;56.00
21401;BME280;18038;50.166;18.908;2023-07-08T00:23:04;98611.44;;;14.66;55.34
21401;BME280;18038;50.166;18.908;2023-07-08T00:26:18;98616.81;;;14.73;57.86
21401;BME280;18038;50.166;18.908;2023-07-08T00:29:29;98613.72;;;14.76;58.90
21401;BME280;18038;50.166;18.908;2023-07-08T00:32:36;98545.69;;;14.29;58.45
21401;BME280;18038;50.166;18.908;2023-07-08T00:35:46;98606.47;;;14.70;58.48
21401;BME280;18038;50.166;18.908;2023-07-08T00:38:52;98602.94;;;14.69;59.67
21401;BME280;18038;50.166;18.908;2023-07-08T00:42:14;98613.28;;;14.53;59.30
21401;BME280;18038;50.166;18.908;2023-07-08T00:45:36;98605.84;;;14.48;60.17
21401;BME280;18038;50.166;18.908;2023-07-08T00:49:21;98600.91;;;14.52;60.43
21401;BME280;18038;50.166;18.908;2023-07-08T00:52:35;98597.16;;;14.53;60.48
21401;BME280;18038;50.166;18.908;2023-07-08T00:55:42;98560.56;;;14.32;60.73
21401;BME280;18038;50.166;18.908;2023-07-08T00:58:57;98598.41;;;14.37;61.69
21401;BME280;18038;50.166;18.908;2023-07-08T01:02:11;98570.28;;;14.26;61.98
21401;BME280;18038;50.166;18.908;2023-07-08T01:05:25;98582.47;;;14.42;61.34
21401;BME280;18038;50.166;18.908;2023-07-08T01:08:38;98590.13;;;14.38;61.74
21401;BME280;18038;50.166;18.908;2023-07-08T01:11:46;98561.59;;;14.17;60.27
21401;BME280;18038;50.166;18.908;2023-07-08T01:14:57;98592.00;;;14.31;59.32
21401;BME280;18038;50.166;18.908;2023-07-08T01:18:09;98594.06;;;14.36;59.17
21401;BME280;18038;50.166;18.908;2023-07-08T01:21:30;98575.25;;;14.29;58.44
21401;BME280;18038;50.166;18.908;2023-07-08T01:24:44;98586.44;;;14.46;57.91
21401;BME280;18038;50.166;18.908;2023-07-08T01:27:55;98590.34;;;14.57;57.10
21401;BME280;18038;50.166;18.908;2023-07-08T01:31:03;98581.47;;;14.63;57.19
21401;BME280;18038;50.166;18.908;2023-07-08T01:34:11;98580.63;;;14.56;57.01
21401;BME280;18038;50.166;18.908;2023-07-08T01:37:18;98585.38;;;14.47;57.75
21401;BME280;18038;50.166;18.908;2023-07-08T01:40:32;98584.75;;;14.32;57.97
21401;BME280;18038;50.166;18.908;2023-07-08T01:43:40;98581.22;;;14.18;58.23
21401;BME280;18038;50.166;18.908;2023-07-08T01:46:47;98593.00;;;14.17;58.31
21401;BME280;18038;50.166;18.908;2023-07-08T01:49:56;98566.53;;;14.14;58.01
21401;BME280;18038;50.166;18.908;2023-07-08T01:53:10;98571.94;;;14.20;57.65
21401;BME280;18038;50.166;18.908;2023-07-08T01:56:22;98575.63;;;14.13;57.46
21401;BME280;18038;50.166;18.908;2023-07-08T01:59:30;98591.09;;;13.97;58.14
21401;BME280;18038;50.166;18.908;2023-07-08T02:02:36;98603.00;;;13.75;57.95
21401;BME280;18038;50.166;18.908;2023-07-08T02:05:43;98603.19;;;13.73;58.57
21401;BME280;18038;50.166;18.908;2023-07-08T02:08:50;98600.38;;;13.88;58.73
21401;BME280;18038;50.166;18.908;2023-07-08T02:12:01;98562.69;;;13.62;58.69
21401;BME280;18038;50.166;18.908;2023-07-08T02:15:09;98599.34;;;13.89;59.24
21401;BME280;18038;50.166;18.908;2023-07-08T02:18:17;98595.84;;;13.95;59.83
21401;BME280;18038;50.166;18.908;2023-07-08T02:21:24;98598.69;;;13.87;59.90
21401;BME280;18038;50.166;18.908;2023-07-08T02:24:34;98591.22;;;13.76;60.64
21401;BME280;18038;50.166;18.908;2023-07-08T02:27:43;98605.00;;;13.59;62.00
21401;BME280;18038;50.166;18.908;2023-07-08T02:30:50;98598.47;;;13.34;63.17
21401;BME280;18038;50.166;18.908;2023-07-08T02:33:57;98606.34;;;13.07;64.63
21401;BME280;18038;50.166;18.908;2023-07-08T02:37:05;98598.88;;;12.96;65.51
21401;BME280;18038;50.166;18.908;2023-07-08T02:40:12;98616.75;;;12.89;66.63
21401;BME280;18038;50.166;18.908;2023-07-08T02:43:23;98614.22;;;12.81;67.39
21401;BME280;18038;50.166;18.908;2023-07-08T02:46:29;98617.94;;;12.80;67.93
21401;BME280;18038;50.166;18.908;2023-07-08T02:49:36;98619.94;;;12.78;68.45
21401;BME280;18038;50.166;18.908;2023-07-08T02:52:43;98539.91;;;12.18;68.70
21401;BME280;18038;50.166;18.908;2023-07-08T02:55:50;98617.97;;;12.65;69.11
21401;BME280;18038;50.166;18.908;2023-07-08T02:58:59;98619.34;;;12.54;70.33
21401;BME280;18038;50.166;18.908;2023-07-08T03:02:06;98613.34;;;12.31;71.45
21401;BME280;18038;50.166;18.908;2023-07-08T03:05:12;98616.41;;;12.27;72.11
21401;BME280;18038;50.166;18.908;2023-07-08T03:08:20;98621.38;;;12.31;72.22
21401;BME280;18038;50.166;18.908;2023-07-08T03:11:26;98575.88;;;12.09;72.91
21401;BME280;18038;50.166;18.908;2023-07-08T03:14:37;98622.94;;;12.40;72.69
21401;BME280;18038;50.166;18.908;2023-07-08T03:17:45;98613.75;;;12.27;72.52
21401;BME280;18038;50.166;18.908;2023-07-08T03:20:52;98630.56;;;12.43;72.36
21401;BME280;18038;50.166;18.908;2023-07-08T03:24:00;98606.13;;;12.53;72.09
21401;BME280;18038;50.166;18.908;2023-07-08T03:27:07;98620.00;;;12.84;71.28
21401;BME280;18038;50.166;18.908;2023-07-08T03:30:18;98617.44;;;12.76;70.76
21401;BME280;18038;50.166;18.908;2023-07-08T03:33:26;98571.06;;;12.47;70.52
21401;BME280;18038;50.166;18.908;2023-07-08T03:36:33;98626.25;;;12.91;70.64
21401;BME280;18038;50.166;18.908;2023-07-08T03:39:40;98618.38;;;13.18;69.19
21401;BME280;18038;50.166;18.908;2023-07-08T03:42:46;98619.44;;;13.58;68.19
21401;BME280;18038;50.166;18.908;2023-07-08T03:45:56;98616.97;;;14.18;65.41
21401;BME280;18038;50.166;18.908;2023-07-08T03:49:03;98621.13;;;14.48;64.07
21401;BME280;18038;50.166;18.908;2023-07-08T03:52:15;98621.56;;;15.11;62.04
21401;BME280;18038;50.166;18.908;2023-07-08T03:55:23;98587.81;;;15.28;60.97
21401;BME280;18038;50.166;18.908;2023-07-08T03:58:31;98616.28;;;15.56;60.61
21401;BME280;18038;50.166;18.908;2023-07-08T04:01:40;98608.97;;;16.15;58.80
21401;BME280;18038;50.166;18.908;2023-07-08T04:04:48;98605.84;;;16.81;56.60
21401;BME280;18038;50.166;18.908;2023-07-08T04:07:55;98609.44;;;17.37;54.37
21401;BME280;18038;50.166;18.908;2023-07-08T04:11:12;98612.00;;;17.69;54.18
21401;BME280;18038;50.166;18.908;2023-07-08T04:14:21;98611.97;;;18.48;51.47
21401;BME280;18038;50.166;18.908;2023-07-08T04:17:31;98610.25;;;18.89;49.93
21401;BME280;18038;50.166;18.908;2023-07-08T04:20:38;98613.19;;;19.46;48.11
21401;BME280;18038;50.166;18.908;2023-07-08T04:24:06;98611.03;;;20.00;47.45
21401;BME280;18038;50.166;18.908;2023-07-08T04:27:16;98609.84;;;20.70;45.19
21401;BME280;18038;50.166;18.908;2023-07-08T04:30:25;98611.44;;;21.56;42.88
21401;BME280;18038;50.166;18.908;2023-07-08T04:33:34;98601.38;;;22.00;41.34
21401;BME280;18038;50.166;18.908;2023-07-08T04:36:42;98599.31;;;22.35;40.57
21401;BME280;18038;50.166;18.908;2023-07-08T04:39:49;98607.66;;;22.92;39.69
21401;BME280;18038;50.166;18.908;2023-07-08T04:42:56;98588.19;;;23.11;39.68
21401;BME280;18038;50.166;18.908;2023-07-08T04:46:14;98605.19;;;23.76;38.10
21401;BME280;18038;50.166;18.908;2023-07-08T04:49:28;98601.53;;;24.28;36.96
21401;BME280;18038;50.166;18.908;2023-07-08T04:52:36;98604.03;;;24.65;36.28
21401;BME280;18038;50.166;18.908;2023-07-08T04:55:47;98598.56;;;24.91;34.84
21401;BME280;18038;50.166;18.908;2023-07-08T04:58:56;98601.00;;;24.62;35.97
21401;BME280;18038;50.166;18.908;2023-07-08T05:02:07;98598.50;;;25.37;33.67
21401;BME280;18038;50.166;18.908;2023-07-08T05:05:17;98598.22;;;25.33;33.28
21401;BME280;18038;50.166;18.908;2023-07-08T05:08:24;98575.22;;;25.55;32.92
21401;BME280;18038;50.166;18.908;2023-07-08T05:11:31;98580.81;;;26.34;31.80
21401;BME280;18038;50.166;18.908;2023-07-08T05:14:39;98600.75;;;27.32;30.61
21401;BME280;18038;50.166;18.908;2023-07-08T05:17:46;98570.59;;;27.61;29.47
21401;BME280;18038;50.166;18.908;2023-07-08T05:20:56;98602.16;;;27.59;29.80
21401;BME280;18038;50.166;18.908;2023-07-08T05:24:05;98602.31;;;27.91;30.09
21401;BME280;18038;50.166;18.908;2023-07-08T05:27:13;98606.34;;;28.18;29.01
21401;BME280;18038;50.166;18.908;2023-07-08T05:30:20;98602.03;;;28.82;28.88
21401;BME280;18038;50.166;18.908;2023-07-08T05:33:30;98598.81;;;29.27;28.19
21401;BME280;18038;50.166;18.908;2023-07-08T05:36:40;98576.03;;;29.68;27.59
21401;BME280;18038;50.166;18.908;2023-07-08T05:39:47;98606.69;;;30.25;26.52
21401;BME280;18038;50.166;18.908;2023-07-08T05:42:53;98606.84;;;30.43;26.88
21401;BME280;18038;50.166;18.908;2023-07-08T05:46:01;98566.47;;;30.60;25.53
21401;BME280;18038;50.166;18.908;2023-07-08T05:49:14;98603.53;;;30.99;25.11
21401;BME280;18038;50.166;18.908;2023-07-08T05:52:24;98602.94;;;30.80;25.60
21401;BME280;18038;50.166;18.908;2023-07-08T05:55:31;98585.78;;;31.54;24.92
21401;BME280;18038;50.166;18.908;2023-07-08T05:58:39;98602.03;;;32.65;23.25
21401;BME280;18038;50.166;18.908;2023-07-08T06:01:45;98606.50;;;33.31;22.95
21401;BME280;18038;50.166;18.908;2023-07-08T06:04:52;98607.28;;;33.70;22.44
21401;BME280;18038;50.166;18.908;2023-07-08T06:08:01;98604.00;;;34.27;21.81
21401;BME280;18038;50.166;18.908;2023-07-08T06:11:09;98616.19;;;34.14;21.66
21401;BME280;18038;50.166;18.908;2023-07-08T06:14:15;98622.34;;;33.04;22.57
21401;BME280;18038;50.166;18.908;2023-07-08T06:17:23;98626.94;;;33.47;22.54
21401;BME280;18038;50.166;18.908;2023-07-08T06:20:30;98622.91;;;33.36;22.67
21401;BME280;18038;50.166;18.908;2023-07-08T06:23:40;98629.06;;;32.51;23.38
21401;BME280;18038;50.166;18.908;2023-07-08T06:26:46;98630.00;;;32.64;23.55
21401;BME280;18038;50.166;18.908;2023-07-08T06:29:57;98604.94;;;32.95;22.32
21401;BME280;18038;50.166;18.908;2023-07-08T06:33:03;98628.47;;;31.97;23.41
21401;BME280;18038;50.166;18.908;2023-07-08T06:36:11;98625.53;;;30.46;25.29
21401;BME280;18038;50.166;18.908;2023-07-08T06:39:20;98622.66;;;30.14;25.33
21401;BME280;18038;50.166;18.908;2023-07-08T06:42:27;98602.00;;;30.85;24.34
21401;BME280;18038;50.166;18.908;2023-07-08T06:45:43;98631.31;;;30.80;25.15
21401;BME280;18038;50.166;18.908;2023-07-08T06:48:51;98609.44;;;31.86;24.12
21401;BME280;18038;50.166;18.908;2023-07-08T06:51:57;98629.34;;;32.93;23.06
21401;BME280;18038;50.166;18.908;2023-07-08T06:55:09;98592.41;;;32.97;21.91
21401;BME280;18038;50.166;18.908;2023-07-08T06:58:17;98626.38;;;32.11;23.54
21401;BME280;18038;50.166;18.908;2023-07-08T07:01:24;98609.19;;;31.57;23.51
21401;BME280;18038;50.166;18.908;2023-07-08T07:04:31;98616.09;;;31.77;23.63
21401;BME280;18038;50.166;18.908;2023-07-08T07:07:39;98616.97;;;32.12;22.52
21401;BME280;18038;50.166;18.908;2023-07-08T07:10:48;98619.13;;;32.32;22.03
21401;BME280;18038;50.166;18.908;2023-07-08T07:13:56;98632.13;;;32.49;22.45
21401;BME280;18038;50.166;18.908;2023-07-08T07:17:03;98630.50;;;32.57;22.30
21401;BME280;18038;50.166;18.908;2023-07-08T07:20:12;98639.44;;;33.53;21.33
21401;BME280;18038;50.166;18.908;2023-07-08T07:23:19;98638.06;;;33.77;18.88
21401;BME280;18038;50.166;18.908;2023-07-08T07:26:29;98631.28;;;33.66;20.22
21401;BME280;18038;50.166;18.908;2023-07-08T07:29:41;98631.66;;;32.65;21.04
21401;BME280;18038;50.166;18.908;2023-07-08T07:32:50;98634.06;;;32.92;21.39
21401;BME280;18038;50.166;18.908;2023-07-08T07:35:57;98632.28;;;32.53;21.41
21401;BME280;18038;50.166;18.908;2023-07-08T07:39:05;98633.50;;;31.46;22.22
21401;BME280;18038;50.166;18.908;2023-07-08T07:42:16;98639.13;;;31.32;21.51
21401;BME280;18038;50.166;18.908;2023-07-08T07:45:25;98647.47;;;31.18;21.59
21401;BME280;18038;50.166;18.908;2023-07-08T07:48:32;98635.16;;;31.16;22.22
21401;BME280;18038;50.166;18.908;2023-07-08T07:51:40;98630.47;;;31.65;22.12
21401;BME280;18038;50.166;18.908;2023-07-08T07:54:46;98632.69;;;31.94;21.59
21401;BME280;18038;50.166;18.908;2023-07-08T07:57:56;98632.84;;;31.80;21.87
21401;BME280;18038;50.166;18.908;2023-07-08T08:01:04;98627.03;;;31.51;21.04
21401;BME280;18038;50.166;18.908;2023-07-08T08:04:12;98612.16;;;30.75;22.81
21401;BME280;18038;50.166;18.908;2023-07-08T08:07:21;98621.72;;;30.55;22.63
21401;BME280;18038;50.166;18.908;2023-07-08T08:10:28;98637.16;;;30.79;22.70
21401;BME280;18038;50.166;18.908;2023-07-08T08:13:39;98635.97;;;30.71;22.95
21401;BME280;18038;50.166;18.908;2023-07-08T08:16:46;98628.25;;;31.36;21.97
21401;BME280;18038;50.166;18.908;2023-07-08T08:19:52;98633.81;;;31.84;21.54
21401;BME280;18038;50.166;18.908;2023-07-08T08:23:00;98633.94;;;32.54;20.58
21401;BME280;18038;50.166;18.908;2023-07-08T08:26:09;98627.41;;;32.59;19.05
21401;BME280;18038;50.166;18.908;2023-07-08T08:29:18;98637.66;;;32.32;19.40
21401;BME280;18038;50.166;18.908;2023-07-08T08:32:25;98634.81;;;31.88;17.67
21401;BME280;18038;50.166;18.908;2023-07-08T08:35:32;98632.53;;;30.52;19.29
21401;BME280;18038;50.166;18.908;2023-07-08T08:38:39;98633.50;;;30.47;20.09
21401;BME280;18038;50.166;18.908;2023-07-08T08:41:46;98637.41;;;30.32;19.39
21401;BME280;18038;50.166;18.908;2023-07-08T08:45:02;98601.69;;;29.77;19.56
21401;BME280;18038;50.166;18.908;2023-07-08T08:48:16;98609.97;;;29.63;19.74
21401;BME280;18038;50.166;18.908;2023-07-08T08:51:30;98624.13;;;30.57;19.14
21401;BME280;18038;50.166;18.908;2023-07-08T08:54:40;98625.09;;;30.16;20.42
21401;BME280;18038;50.166;18.908;2023-07-08T08:57:56;98626.53;;;29.86;19.82
21401;BME280;18038;50.166;18.908;2023-07-08T09:01:14;98624.72;;;29.81;20.27
21401;BME280;18038;50.166;18.908;2023-07-08T09:04:28;98605.94;;;29.28;21.03
21401;BME280;18038;50.166;18.908;2023-07-08T09:07:58;98603.44;;;30.09;20.85
21401;BME280;18038;50.166;18.908;2023-07-08T09:11:40;98616.38;;;29.86;20.39
21401;BME280;18038;50.166;18.908;2023-07-08T09:14:52;98613.94;;;29.71;21.29
21401;BME280;18038;50.166;18.908;2023-07-08T09:18:15;98615.00;;;29.56;21.42
21401;BME280;18038;50.166;18.908;2023-07-08T09:21:36;98604.19;;;30.01;20.63
21401;BME280;18038;50.166;18.908;2023-07-08T09:24:56;98609.94;;;29.77;22.20
21401;BME280;18038;50.166;18.908;2023-07-08T09:28:09;98616.75;;;28.92;21.90
21401;BME280;18038;50.166;18.908;2023-07-08T09:31:23;98613.47;;;28.57;22.27
21401;BME280;18038;50.166;18.908;2023-07-08T09:34:43;98613.69;;;28.41;21.90
21401;BME280;18038;50.166;18.908;2023-07-08T09:37:52;98608.28;;;28.17;22.43
21401;BME280;18038;50.166;18.908;2023-07-08T09:41:00;98613.03;;;28.50;20.80
21401;BME280;18038;50.166;18.908;2023-07-08T09:44:17;98615.72;;;29.20;20.60
21401;BME280;18038;50.166;18.908;2023-07-08T09:47:35;98609.28;;;29.11;20.06
21401;BME280;18038;50.166;18.908;2023-07-08T09:50:48;98606.69;;;29.61;19.98
21401;BME280;18038;50.166;18.908;2023-07-08T09:53:58;98605.72;;;29.38;20.09
21401;BME280;18038;50.166;18.908;2023-07-08T09:57:12;98598.38;;;29.20;20.40
21401;BME280;18038;50.166;18.908;2023-07-08T10:00:32;98598.25;;;29.58;20.57
21401;BME280;18038;50.166;18.908;2023-07-08T10:03:43;98598.66;;;30.51;19.63
21401;BME280;18038;50.166;18.908;2023-07-08T10:06:57;98594.31;;;30.00;18.57
21401;BME280;18038;50.166;18.908;2023-07-08T10:10:10;98580.66;;;29.54;20.42
21401;BME280;18038;50.166;18.908;2023-07-08T10:13:28;98581.97;;;30.11;20.80
21401;BME280;18038;50.166;18.908;2023-07-08T10:16:43;98591.75;;;30.40;21.09
21401;BME280;18038;50.166;18.908;2023-07-08T10:19:50;98581.81;;;30.53;19.31
21401;BME280;18038;50.166;18.908;2023-07-08T10:23:15;98592.16;;;30.92;19.62
21401;BME280;18038;50.166;18.908;2023-07-08T10:26:33;98563.72;;;30.83;18.85
21401;BME280;18038;50.166;18.908;2023-07-08T10:29:48;98571.94;;;31.06;17.75
21401;BME280;18038;50.166;18.908;2023-07-08T10:33:16;98576.56;;;30.65;19.83
21401;BME280;18038;50.166;18.908;2023-07-08T10:36:47;98576.31;;;30.75;20.58
21401;BME280;18038;50.166;18.908;2023-07-08T10:40:14;98576.09;;;30.49;19.18
21401;BME280;18038;50.166;18.908;2023-07-08T10:43:46;98582.28;;;30.69;18.91
21401;BME280;18038;50.166;18.908;2023-07-08T10:47:18;98568.69;;;31.03;21.36
21401;BME280;18038;50.166;18.908;2023-07-08T10:50:53;98553.59;;;31.32;19.92
21401;BME280;18038;50.166;18.908;2023-07-08T10:54:28;98561.44;;;31.56;18.24
21401;BME280;18038;50.166;18.908;2023-07-08T10:58:25;98552.78;;;31.00;18.69
21401;BME280;18038;50.166;18.908;2023-07-08T11:02:16;98556.53;;;31.04;20.18
21401;BME280;18038;50.166;18.908;2023-07-08T11:05:41;98551.06;;;31.13;21.70
21401;BME280;18038;50.166;18.908;2023-07-08T11:08:56;98539.72;;;30.84;20.65
21401;BME280;18038;50.166;18.908;2023-07-08T11:12:19;98547.25;;;29.46;22.32
21401;BME280;18038;50.166;18.908;2023-07-08T11:15:45;98547.44;;;29.22;22.00
21401;BME280;18038;50.166;18.908;2023-07-08T11:19:04;98541.91;;;28.81;21.61
21401;BME280;18038;50.166;18.908;2023-07-08T11:22:21;98535.50;;;28.53;21.92
21401;BME280;18038;50.166;18.908;2023-07-08T11:25:32;98543.16;;;28.56;21.77
21401;BME280;18038;50.166;18.908;2023-07-08T11:28:40;98537.19;;;28.68;21.66
21401;BME280;18038;50.166;18.908;2023-07-08T11:31:54;98539.72;;;28.64;22.04
21401;BME280;18038;50.166;18.908;2023-07-08T11:35:19;98537.69;;;28.18;21.99
21401;BME280;18038;50.166;18.908;2023-07-08T11:38:32;98555.00;;;27.99;21.17
21401;BME280;18038;50.166;18.908;2023-07-08T11:41:53;98539.09;;;28.34;22.35
21401;BME280;18038;50.166;18.908;2023-07-08T11:45:25;98531.31;;;28.23;23.17
21401;BME280;18038;50.166;18.908;2023-07-08T11:48:45;98534.72;;;27.95;22.32
21401;BME280;18038;50.166;18.908;2023-07-08T11:51:56;98528.59;;;28.04;22.53
21401;BME280;18038;50.166;18.908;2023-07-08T11:55:20;98532.34;;;27.89;21.78
21401;BME280;18038;50.166;18.908;2023-07-08T11:58:51;98526.72;;;27.80;22.55
21401;BME280;18038;50.166;18.908;2023-07-08T12:02:13;98525.19;;;28.12;22.03
21401;BME280;18038;50.166;18.908;2023-07-08T12:05:35;98518.31;;;28.47;23.15
21401;BME280;18038;50.166;18.908;2023-07-08T12:08:45;98516.03;;;28.68;23.05
21401;BME280;18038;50.166;18.908;2023-07-08T12:12:00;98509.28;;;28.60;20.81
21401;BME280;18038;50.166;18.908;2023-07-08T12:15:16;98505.78;;;27.84;22.67
21401;BME280;18038;50.166;18.908;2023-07-08T12:18:35;98506.91;;;27.64;23.93
21401;BME280;18038;50.166;18.908;2023-07-08T12:21:52;98507.78;;;27.78;22.04
21401;BME280;18038;50.166;18.908;2023-07-08T12:24:59;98494.72;;;27.89;22.62
21401;BME280;18038;50.166;18.908;2023-07-08T12:28:10;98484.44;;;27.62;22.46
21401;BME280;18038;50.166;18.908;2023-07-08T12:31:20;98488.25;;;27.18;22.73
21401;BME280;18038;50.166;18.908;2023-07-08T12:34:29;98490.28;;;27.31;23.82
21401;BME280;18038;50.166;18.908;2023-07-08T12:37:38;98485.56;;;27.61;23.27
21401;BME280;18038;50.166;18.908;2023-07-08T12:40:45;98483.94;;;26.88;24.17
21401;BME280;18038;50.166;18.908;2023-07-08T12:43:52;98483.53;;;26.71;24.02
21401;BME280;18038;50.166;18.908;2023-07-08T12:47:02;98490.81;;;26.56;24.60
21401;BME280;18038;50.166;18.908;2023-07-08T12:50:10;98486.81;;;26.43;23.77
21401;BME280;18038;50.166;18.908;2023-07-08T12:53:20;98482.94;;;26.15;24.29
21401;BME280;18038;50.166;18.908;2023-07-08T12:56:26;98474.63;;;25.91;24.31
21401;BME280;18038;50.166;18.908;2023-07-08T12:59:33;98477.22;;;25.72;23.96
21401;BME280;18038;50.166;18.908;2023-07-08T13:02:45;98467.31;;;25.81;25.05
21401;BME280;18038;50.166;18.908;2023-07-08T13:05:56;98455.88;;;25.74;24.77
21401;BME280;18038;50.166;18.908;2023-07-08T13:09:23;98471.81;;;25.57;24.74
21401;BME280;18038;50.166;18.908;2023-07-08T13:12:41;98471.44;;;25.79;25.25
21401;BME280;18038;50.166;18.908;2023-07-08T13:15:49;98465.81;;;25.99;24.09
21401;BME280;18038;50.166;18.908;2023-07-08T13:18:58;98460.59;;;26.03;23.53
21401;BME280;18038;50.166;18.908;2023-07-08T13:22:06;98469.94;;;26.31;24.11
21401;BME280;18038;50.166;18.908;2023-07-08T13:25:31;98450.78;;;25.97;24.42
21401;BME280;18038;50.166;18.908;2023-07-08T13:28:39;98458.47;;;25.95;24.72
21401;BME280;18038;50.166;18.908;2023-07-08T13:31:53;98459.56;;;25.94;24.27
21401;BME280;18038;50.166;18.908;2023-07-08T13:35:01;98465.97;;;25.79;24.62
21401;BME280;18038;50.166;18.908;2023-07-08T13:38:15;98454.38;;;25.92;24.50
21401;BME280;18038;50.166;18.908;2023-07-08T13:41:25;98448.34;;;26.30;24.87
21401;BME280;18038;50.166;18.908;2023-07-08T13:44:32;98456.78;;;26.62;24.66
21401;BME280;18038;50.166;18.908;2023-07-08T13:47:39;98452.09;;;26.92;25.58
21401;BME280;18038;50.166;18.908;2023-07-08T13:50:53;98451.94;;;27.07;24.19
21401;BME280;18038;50.166;18.908;2023-07-08T13:54:13;98453.53;;;27.32;25.09
21401;BME280;18038;50.166;18.908;2023-07-08T13:57:33;98448.44;;;27.45;24.14
21401;BME280;18038;50.166;18.908;2023-07-08T14:00:43;98452.03;;;27.45;24.93
21401;BME280;18038;50.166;18.908;2023-07-08T14:03:52;98449.78;;;27.47;25.58
21401;BME280;18038;50.166;18.908;2023-07-08T14:07:00;98448.09;;;27.51;24.18
21401;BME280;18038;50.166;18.908;2023-07-08T14:10:12;98448.97;;;27.47;24.10
21401;BME280;18038;50.166;18.908;2023-07-08T14:13:38;98443.66;;;27.31;24.04
21401;BME280;18038;50.166;18.908;2023-07-08T14:16:47;98442.84;;;27.31;25.03
21401;BME280;18038;50.166;18.908;2023-07-08T14:19:55;98450.13;;;27.22;23.89
21401;BME280;18038;50.166;18.908;2023-07-08T14:23:02;98439.53;;;26.91;22.97
21401;BME280;18038;50.166;18.908;2023-07-08T14:26:10;98440.59;;;26.95;24.11
21401;BME280;18038;50.166;18.908;2023-07-08T14:29:21;98438.47;;;26.87;24.86
21401;BME280;18038;50.166;18.908;2023-07-08T14:32:30;98401.25;;;26.57;23.97
21401;BME280;18038;50.166;18.908;2023-07-08T14:35:40;98431.03;;;26.93;24.07
21401;BME280;18038;50.166;18.908;2023-07-08T14:38:47;98442.03;;;27.11;25.42
21401;BME280;18038;50.166;18.908;2023-07-08T14:41:55;98424.78;;;27.30;24.91
21401;BME280;18038;50.166;18.908;2023-07-08T14:45:10;98363.97;;;26.85;25.41
21401;BME280;18038;50.166;18.908;2023-07-08T14:48:20;98429.63;;;27.38;25.18
21401;BME280;18038;50.166;18.908;2023-07-08T14:51:28;98395.97;;;27.32;24.35
21401;BME280;18038;50.166;18.908;2023-07-08T14:54:36;98421.28;;;27.48;23.11
21401;BME280;18038;50.166;18.908;2023-07-08T14:57:45;98420.63;;;27.32;23.64
21401;BME280;18038;50.166;18.908;2023-07-08T15:00:59;98419.00;;;27.31;23.69
21401;BME280;18038;50.166;18.908;2023-07-08T15:04:16;98389.88;;;27.17;22.73
21401;BME280;18038;50.166;18.908;2023-07-08T15:07:24;98415.16;;;27.32;23.07
21401;BME280;18038;50.166;18.908;2023-07-08T15:10:34;98409.00;;;27.22;23.16
21401;BME280;18038;50.166;18.908;2023-07-08T15:13:46;98408.31;;;27.11;21.87
21401;BME280;18038;50.166;18.908;2023-07-08T15:16:58;98406.56;;;26.96;22.60
21401;BME280;18038;50.166;18.908;2023-07-08T15:20:10;98405.59;;;26.87;22.54
21401;BME280;18038;50.166;18.908;2023-07-08T15:23:18;98400.41;;;26.85;21.70
21401;BME280;18038;50.166;18.908;2023-07-08T15:26:27;98403.69;;;26.87;22.62
21401;BME280;18038;50.166;18.908;2023-07-08T15:29:34;98394.91;;;27.09;22.40
21401;BME280;18038;50.166;18.908;2023-07-08T15:32:45;98396.91;;;27.04;22.47
21401;BME280;18038;50.166;18.908;2023-07-08T15:35:52;98401.13;;;27.15;23.12
21401;BME280;18038;50.166;18.908;2023-07-08T15:38:59;98393.34;;;27.22;21.62
21401;BME280;18038;50.166;18.908;2023-07-08T15:42:11;98396.84;;;27.28;22.74
21401;BME280;18038;50.166;18.908;2023-07-08T15:45:23;98395.56;;;27.20;21.18
21401;BME280;18038;50.166;18.908;2023-07-08T15:48:34;98396.25;;;27.31;24.15
21401;BME280;18038;50.166;18.908;2023-07-08T15:51:41;98393.81;;;27.29;21.71
21401;BME280;18038;50.166;18.908;2023-07-08T15:54:51;98400.47;;;27.23;21.92
21401;BME280;18038;50.166;18.908;2023-07-08T15:58:01;98401.94;;;27.16;21.88
21401;BME280;18038;50.166;18.908;2023-07-08T16:01:17;98402.84;;;27.11;21.35
21401;BME280;18038;50.166;18.908;2023-07-08T16:04:32;98397.25;;;26.97;21.07
21401;BME280;18038;50.166;18.908;2023-07-08T16:07:40;98397.97;;;27.03;22.15
21401;BME280;18038;50.166;18.908;2023-07-08T16:10:52;98390.00;;;27.06;21.82
21401;BME280;18038;50.166;18.908;2023-07-08T16:14:05;98390.16;;;27.15;22.01
21401;BME280;18038;50.166;18.908;2023-07-08T16:17:12;98385.56;;;27.10;23.06
21401;BME280;18038;50.166;18.908;2023-07-08T16:20:24;98377.41;;;27.05;22.32
21401;BME280;18038;50.166;18.908;2023-07-08T16:23:32;98391.63;;;27.07;23.67
21401;BME280;18038;50.166;18.908;2023-07-08T16:26:40;98393.13;;;27.19;21.66
21401;BME280;18038;50.166;18.908;2023-07-08T16:29:47;98389.81;;;27.22;23.81
21401;BME280;18038;50.166;18.908;2023-07-08T16:32:55;98384.41;;;27.17;22.22
21401;BME280;18038;50.166;18.908;2023-07-08T16:36:12;98393.28;;;27.08;23.19
21401;BME280;18038;50.166;18.908;2023-07-08T16:39:19;98390.59;;;27.03;22.76
21401;BME280;18038;50.166;18.908;2023-07-08T16:42:27;98390.06;;;27.01;22.70